Seattle, Washington
Current Conditions -  °F | °C
As of 3:53 PM on Wednesday 17 Dec 2014 (Local Time) from KBFI Reporting Station
Overcast Overcast  
Wind Chill: 11°   Ceiling: 5000
Heat Index: 11°   Visibility: 10mi
Dew Point:   Wind: 0mph
Humidity: 68%   Direction: NA
Pressure: 29.85"   Gusts: NA
Location:  47.6°N, 122.32°W
Report Text: KBFI 172353Z 00000KT 10SM BKN050 OVC065 11/05 A2985 RMK AO2 SLP108 T01060050 10111 20089 53005
Loading
Personal Weather Stations






























Interactive Weather Map New forecast layout! Learn more

10-Day Weather Forecast

Advertisements
Track Severe Weather on mobile